Goshen, UT

3:31 PM MST on December 25, 2014 (GMT -0700)
APRSWXNET Payson UT US | Change Station
CLOSE
Current Station
Personal Weather Station
Location: Santaquin, UT
Elevation: 4652 ft
Nearby Weather Stations

Elev 4652 ft 40.04 °N, 111.74 °W | Updated 27 minutes ago

Snow
Snow
29 °F
Feels Like 29 °F
N
2
Wind Variable Wind from SSW
Gusts 5.0 mph

Today
High -- | Low -- °F
--% Chance of Precip.
Yesterday
High -- | Low -- °F
Precip. -- in
7:47 AM 5:08 PM
Waxing Crescent, 19% visible
Pressure 29.71 in
Visibility 1.0 miles
Clouds Overcast 1000 ft
Windchill 29 °F
Dew Point 25 °F
Humidity 84%
Rainfall -999.00 in
Snow Depth Not available.
UV 0 out of 12
Pollen .10 out of 12
Air Quality Not available.
Flu Activity Not available.
METAR KPVU 252155Z 00000KT 1SM SN OVC010 M03/M05 A2971

More Conditions Fewer Conditions

Pressure 29.71 in
Visibility 1.0 miles
Clouds Overcast 1000 ft
Windchill 29 °F
Dew Point 25 °F
Humidity 84%
Rainfall -999.00 in
Snow Depth Not available.
UV 0 out of 12
Pollen .10 out of 12
Air Quality Not available.
Flu Activity Not available.
METAR KPVU 252155Z 00000KT 1SM SN OVC010 M03/M05 A2971

More Conditions Fewer Conditions

10-Day Weather Forecast

Almanac

Astronomy

Dec. 25, 2014 Rise Set
Actual Time
Civil Twilight
Nautical Twilight
Astronomical Twilight
Moon
Length of Visible Light
Length of Day
Tomorrow will be .
, % of the Moon is Illuminated

Today's Extremes

State Highs State Lows

Community

WunderPhotos

Upload Photos

1,780,430 photos uploaded!

WunderBlogs® & News

Nearby

Air Quality

  Air Quality AQ Index Pollutant
Not available.

Snow Depth

Station Depth Elevation

Earthquake Activity

City Distance Mag. Time & Date
Minimum magnitude displayed is 2.5.

Coastal Water Temperatures

Place Temperature

Nearby Weather Stations